Time;durP1;ratioP1;P1;durP2;ratioP2;P2;SDS_P1;SDS_P2;PMS_P1;PMS_P2;Temp;Humidity;BMP_temperature;BMP_pressure;BME280_temperature;BME280_humidity;BME280_pressure;Samples;Min_cycle;Max_cycle;Signal;HPM_P1;HPM_P2
2022/07/01 00:00:43;;;;;;;5.25;4.85;;;18.40;99.90;;;;;;2075954;28;20025;-71
2022/07/01 00:01:44;;;;;;;4.88;4.57;;;18.40;99.90;;;;;;2074398;28;20136;-71
2022/07/01 00:02:45;;;;;;;4.43;3.58;;;18.40;99.90;;;;;;2076889;28;20029;-71
2022/07/01 00:03:51;;;;;;;5.22;4.82;;;18.40;99.90;;;;;;2078501;28;20547;-71
2022/07/01 00:04:52;;;;;;;3.97;3.70;;;18.40;99.90;;;;;;2073294;28;20120;-71
2022/07/01 00:05:52;;;;;;;6.45;4.72;;;18.40;99.90;;;;;;2076892;28;20057;-71
2022/07/01 00:06:54;;;;;;;5.05;4.65;;;18.40;99.90;;;;;;2075747;28;20040;-70
2022/07/01 00:07:55;;;;;;;4.10;3.80;;;18.40;99.90;;;;;;2071003;28;20513;-70
2022/07/01 00:08:56;;;;;;;4.90;4.60;;;18.40;99.90;;;;;;2069635;28;20499;-71
2022/07/01 00:09:56;;;;;;;3.80;3.60;;;18.40;99.90;;;;;;2074608;28;20496;-71
2022/07/01 00:10:57;;;;;;;5.38;4.85;;;18.40;99.90;;;;;;2076843;28;20029;-71
2022/07/01 00:11:57;;;;;;;5.13;4.75;;;18.40;99.90;;;;;;2074941;28;20033;-70
2022/07/01 00:12:58;;;;;;;4.65;4.35;;;18.40;99.90;;;;;;2076544;28;20058;-70
2022/07/01 00:13:58;;;;;;;3.97;3.67;;;18.40;99.90;;;;;;2077912;28;20064;-70
2022/07/01 00:14:59;;;;;;;5.10;4.70;;;18.40;99.90;;;;;;2076740;28;20393;-70
2022/07/01 00:16:00;;;;;;;4.15;3.85;;;18.40;99.90;;;;;;2075401;28;20087;-70
2022/07/01 00:17:00;;;;;;;4.65;4.28;;;18.40;99.90;;;;;;2076496;28;20088;-70
2022/07/01 00:18:02;;;;;;;4.60;4.30;;;18.40;99.90;;;;;;2075377;28;20022;-71
2022/07/01 00:19:04;;;;;;;4.85;4.45;;;18.40;99.90;;;;;;2077928;28;20464;-70
2022/07/01 00:20:05;;;;;;;4.72;4.43;;;18.40;99.90;;;;;;2075210;28;20021;-70
2022/07/01 00:21:06;;;;;;;4.35;4.05;;;18.40;99.90;;;;;;2076793;28;20021;-70
2022/07/01 00:22:07;;;;;;;4.03;3.78;;;18.50;99.90;;;;;;2075181;28;20030;-71
2022/07/01 00:23:08;;;;;;;4.85;4.50;;;18.40;99.90;;;;;;2074545;28;20022;-70
2022/07/01 00:24:08;;;;;;;5.22;4.03;;;18.50;99.90;;;;;;2075983;28;20060;-70
2022/07/01 00:25:10;;;;;;;4.40;4.10;;;18.50;99.90;;;;;;2074200;28;20025;-71
2022/07/01 00:26:10;;;;;;;4.50;4.20;;;18.50;99.90;;;;;;2076287;28;20021;-70
2022/07/01 00:27:12;;;;;;;3.92;3.72;;;18.50;99.90;;;;;;2075922;28;20557;-70
2022/07/01 00:28:13;;;;;;;5.10;4.57;;;18.50;99.90;;;;;;2076379;28;20109;-70
2022/07/01 00:29:14;;;;;;;4.65;4.25;;;18.50;99.90;;;;;;2075986;28;20032;-70
2022/07/01 00:30:15;;;;;;;4.00;3.70;;;18.50;99.90;;;;;;2078027;28;20473;-70
2022/07/01 00:31:15;;;;;;;5.53;5.05;;;18.50;99.90;;;;;;2076714;28;20485;-70
2022/07/01 00:32:16;;;;;;;4.53;3.88;;;18.50;99.90;;;;;;2075570;28;20025;-70
2022/07/01 00:33:17;;;;;;;3.72;3.53;;;18.40;99.90;;;;;;2075663;28;20037;-70
2022/07/01 00:34:17;;;;;;;3.13;2.92;;;18.40;99.90;;;;;;2066070;28;20030;-70
2022/07/01 00:35:18;;;;;;;5.25;4.75;;;18.40;99.90;;;;;;2067163;28;20053;-70
2022/07/01 00:36:19;;;;;;;3.72;3.50;;;18.40;99.90;;;;;;2074694;28;20028;-70
2022/07/01 00:37:19;;;;;;;4.28;3.88;;;18.50;99.90;;;;;;2074410;28;20025;-70
2022/07/01 00:38:20;;;;;;;5.75;5.25;;;18.50;99.90;;;;;;2075729;28;20030;-71
2022/07/01 00:39:20;;;;;;;4.72;4.35;;;18.50;99.90;;;;;;2077232;28;20032;-71
2022/07/01 00:40:21;;;;;;;5.65;5.20;;;18.40;99.90;;;;;;2074755;28;20030;-70
2022/07/01 00:41:22;;;;;;;6.00;5.55;;;18.40;99.90;;;;;;2076531;28;20026;-70
2022/07/01 00:42:22;;;;;;;7.45;4.70;;;18.40;99.90;;;;;;2075869;28;20081;-70
2022/07/01 00:43:24;;;;;;;6.85;6.25;;;18.40;99.90;;;;;;2079850;28;20028;-70
2022/07/01 00:44:25;;;;;;;6.07;5.57;;;18.40;99.90;;;;;;2077672;28;20477;-70
2022/07/01 00:45:25;;;;;;;6.50;6.03;;;18.40;99.90;;;;;;2076938;28;20432;-70
2022/07/01 00:46:26;;;;;;;5.65;5.25;;;18.40;99.90;;;;;;2076519;28;20033;-70
2022/07/01 00:47:27;;;;;;;5.40;4.90;;;18.40;99.90;;;;;;2079046;28;20029;-70
2022/07/01 00:48:28;;;;;;;6.25;5.63;;;18.40;99.90;;;;;;2069433;28;20030;-71
2022/07/01 00:49:29;;;;;;;7.53;6.95;;;18.40;99.90;;;;;;2069895;28;20444;-71
2022/07/01 00:50:30;;;;;;;7.35;6.63;;;18.40;99.90;;;;;;2078775;28;20076;-70
2022/07/01 00:51:31;;;;;;;9.43;8.70;;;18.40;99.90;;;;;;2077192;28;20054;-70
2022/07/01 00:52:32;;;;;;;8.60;7.03;;;18.40;99.90;;;;;;2078980;28;20096;-70
2022/07/01 00:53:33;;;;;;;6.40;5.90;;;18.40;99.90;;;;;;2075591;28;20182;-70
2022/07/01 00:54:36;;;;;;;7.50;6.90;;;18.40;99.90;;;;;;2074447;28;20554;-70
2022/07/01 00:55:37;;;;;;;9.40;8.70;;;18.40;99.90;;;;;;2079230;28;20025;-70
2022/07/01 00:56:38;;;;;;;8.98;8.27;;;18.40;99.90;;;;;;2075053;28;20105;-70
2022/07/01 00:57:40;;;;;;;7.95;7.35;;;18.40;99.90;;;;;;2077194;28;20021;-70
2022/07/01 00:58:41;;;;;;;8.82;8.13;;;18.30;99.90;;;;;;2078292;28;20018;-70
2022/07/01 00:59:42;;;;;;;8.15;7.45;;;18.40;99.90;;;;;;2073526;28;20033;-70
2022/07/01 01:00:42;;;;;;;6.88;6.38;;;18.40;99.90;;;;;;2079570;28;20481;-70
2022/07/01 01:01:43;;;;;;;7.88;7.28;;;18.40;99.90;;;;;;2080939;28;20045;-70
2022/07/01 01:02:44;;;;;;;7.40;6.85;;;18.40;99.90;;;;;;2076451;28;20381;-70
2022/07/01 01:03:45;;;;;;;11.80;10.77;;;18.40;99.90;;;;;;2077097;28;20049;-70
2022/07/01 01:04:46;;;;;;;9.55;8.68;;;18.40;99.90;;;;;;2077388;28;20030;-70
2022/07/01 01:05:48;;;;;;;12.18;11.07;;;18.40;99.90;;;;;;2079760;28;20029;-70
2022/07/01 01:06:49;;;;;;;12.45;11.35;;;18.40;99.90;;;;;;2080278;28;20099;-70
2022/07/01 01:07:50;;;;;;;12.15;8.55;;;18.40;99.90;;;;;;2080307;28;20068;-70
2022/07/01 01:08:50;;;;;;;8.70;8.05;;;18.40;99.90;;;;;;2078689;28;20576;-70
2022/07/01 01:09:51;;;;;;;11.15;10.15;;;18.40;99.90;;;;;;2077522;28;20033;-70
2022/07/01 01:10:53;;;;;;;10.82;9.93;;;18.40;99.90;;;;;;2079146;28;20555;-70
2022/07/01 01:11:55;;;;;;;10.93;10.02;;;18.40;99.90;;;;;;2076792;28;20072;-70
2022/07/01 01:12:57;;;;;;;11.25;10.25;;;18.40;99.90;;;;;;2076314;28;20029;-70
2022/07/01 01:13:58;;;;;;;10.32;9.43;;;18.40;99.90;;;;;;2078182;28;20053;-70
2022/07/01 01:14:58;;;;;;;12.68;11.68;;;18.40;99.90;;;;;;2077806;28;20026;-70
2022/07/01 01:15:59;;;;;;;12.88;11.88;;;18.40;99.90;;;;;;2077907;28;20489;-70
2022/07/01 01:16:59;;;;;;;13.18;11.98;;;18.40;99.90;;;;;;2085991;28;20414;-70
2022/07/01 01:18:00;;;;;;;15.07;13.70;;;18.40;99.90;;;;;;2086860;28;20135;-70
2022/07/01 01:19:05;;;;;;;11.43;10.52;;;18.40;99.90;;;;;;2069090;28;20501;-70
2022/07/01 01:20:06;;;;;;;12.98;11.88;;;18.40;99.90;;;;;;2069912;28;20105;-70
2022/07/01 01:21:07;;;;;;;15.20;13.95;;;18.40;99.90;;;;;;2079300;28;20032;-70
2022/07/01 01:22:08;;;;;;;15.63;14.23;;;18.40;99.90;;;;;;2078569;28;20026;-70
2022/07/01 01:23:09;;;;;;;14.75;13.57;;;18.40;99.90;;;;;;2077231;28;20448;-70
2022/07/01 01:24:09;;;;;;;18.00;16.42;;;18.30;99.90;;;;;;2077973;28;20017;-70
2022/07/01 01:25:10;;;;;;;17.05;15.55;;;18.40;99.90;;;;;;2079028;28;20040;-70
2022/07/01 01:26:19;;;;;;;14.20;13.00;;;18.30;99.90;;;;;;2077691;28;20025;-70
2022/07/01 01:27:20;;;;;;;18.33;16.83;;;18.30;99.90;;;;;;2076247;28;20056;-70
2022/07/01 01:28:21;;;;;;;17.63;16.02;;;18.30;99.90;;;;;;2075259;28;20049;-70
2022/07/01 01:29:21;;;;;;;18.17;16.58;;;18.30;99.90;;;;;;2078330;28;20402;-70
2022/07/01 01:30:22;;;;;;;15.55;14.25;;;18.30;99.90;;;;;;2076834;28;20037;-70
2022/07/01 01:31:33;;;;;;;15.10;13.88;;;18.30;99.90;;;;;;2078931;28;20036;-70
2022/07/01 01:32:33;;;;;;;;;;;18.30;99.90;;;;;;2077636;28;20020;-70
2022/07/01 01:33:34;;;;;;;18.13;16.55;;;18.20;99.90;;;;;;2073067;28;19916;-70
2022/07/01 01:34:36;;;;;;;16.13;14.73;;;18.20;99.90;;;;;;2075910;28;20378;-70
2022/07/01 01:35:38;;;;;;;15.45;14.15;;;18.20;99.90;;;;;;2078223;28;20057;-70
2022/07/01 01:36:39;;;;;;;15.15;13.73;;;18.20;99.90;;;;;;2078688;28;20120;-70
2022/07/01 01:37:40;;;;;;;18.23;16.73;;;18.20;99.90;;;;;;2079006;28;20370;-70
2022/07/01 01:38:40;;;;;;;19.42;17.73;;;18.20;99.90;;;;;;2079985;28;20571;-70
2022/07/01 01:39:41;;;;;;;16.83;15.38;;;18.20;99.90;;;;;;2080756;28;20489;-70
2022/07/01 01:40:43;;;;;;;18.50;16.85;;;18.20;99.90;;;;;;2077460;28;20100;-70
2022/07/01 01:41:45;;;;;;;18.48;16.63;;;18.20;99.90;;;;;;2076375;28;20132;-70
2022/07/01 01:42:46;;;;;;;19.20;17.40;;;18.30;99.90;;;;;;2077103;28;20036;-70
2022/07/01 01:43:47;;;;;;;15.07;13.77;;;18.20;99.90;;;;;;2077209;28;20101;-70
2022/07/01 01:44:47;;;;;;;18.05;16.45;;;18.20;99.90;;;;;;2077325;28;20034;-70
2022/07/01 01:45:48;;;;;;;18.83;17.23;;;18.20;99.90;;;;;;2076628;28;20644;-70
2022/07/01 01:46:48;;;;;;;14.85;13.43;;;18.20;99.90;;;;;;2076188;28;20030;-70
2022/07/01 01:47:49;;;;;;;17.40;15.95;;;18.30;99.90;;;;;;2078253;28;20033;-70
2022/07/01 01:48:50;;;;;;;18.00;16.50;;;18.30;99.90;;;;;;2075486;28;20370;-70
2022/07/01 01:49:51;;;;;;;15.90;14.50;;;18.30;99.90;;;;;;2078125;28;20030;-70
2022/07/01 01:50:51;;;;;;;16.17;14.68;;;18.20;99.90;;;;;;2076327;28;20520;-70
2022/07/01 01:51:52;;;;;;;15.73;14.35;;;18.20;99.90;;;;;;2077600;28;20083;-70
2022/07/01 01:52:52;;;;;;;16.67;15.18;;;18.20;99.90;;;;;;2078527;28;20036;-71
2022/07/01 01:53:53;;;;;;;15.63;14.23;;;18.20;99.90;;;;;;2078217;28;20027;-70
2022/07/01 01:54:54;;;;;;;15.23;13.80;;;18.20;99.90;;;;;;2078470;28;20033;-70
2022/07/01 01:55:54;;;;;;;14.93;13.48;;;18.20;99.90;;;;;;2077352;28;20014;-70
2022/07/01 01:56:55;;;;;;;15.48;13.98;;;18.20;99.90;;;;;;2079475;28;20083;-70
2022/07/01 01:57:55;;;;;;;16.80;15.13;;;18.20;99.90;;;;;;2076624;28;20029;-70
2022/07/01 01:58:57;;;;;;;12.85;11.75;;;18.10;99.90;;;;;;2076092;28;20018;-70
2022/07/01 01:59:57;;;;;;;14.85;13.55;;;18.10;99.90;;;;;;2074823;28;20026;-70
2022/07/01 02:00:58;;;;;;;13.68;12.43;;;18.20;99.90;;;;;;2077204;28;20032;-70
2022/07/01 02:01:59;;;;;;;13.57;12.25;;;18.10;99.90;;;;;;2075211;28;20504;-70
2022/07/01 02:02:59;;;;;;;12.13;11.13;;;18.10;99.90;;;;;;2076201;28;20083;-70
2022/07/01 02:04:00;;;;;;;13.40;12.10;;;18.10;99.90;;;;;;2078359;28;20052;-70
2022/07/01 02:05:00;;;;;;;11.93;10.90;;;18.10;99.90;;;;;;2078628;28;20476;-70
2022/07/01 02:06:01;;;;;;;12.77;11.50;;;18.00;99.90;;;;;;2076859;28;20022;-70
2022/07/01 02:07:03;;;;;;;11.70;10.60;;;18.00;99.90;;;;;;2076178;28;20059;-70
2022/07/01 02:08:04;;;;;;;11.32;10.05;;;18.00;99.90;;;;;;2077424;28;20030;-70
2022/07/01 02:09:04;;;;;;;10.23;9.32;;;18.00;99.90;;;;;;2077222;28;20044;-70
2022/07/01 02:10:06;;;;;;;10.25;9.25;;;17.90;99.90;;;;;;2076567;28;20031;-70
2022/07/01 02:11:07;;;;;;;9.98;9.13;;;18.00;99.90;;;;;;2078476;28;20066;-70
2022/07/01 02:12:08;;;;;;;8.93;8.23;;;17.90;99.90;;;;;;2077220;28;20037;-70
2022/07/01 02:13:09;;;;;;;10.48;9.55;;;17.90;99.90;;;;;;2074774;28;20117;-70
2022/07/01 02:14:09;;;;;;;9.95;9.05;;;17.90;99.90;;;;;;2075552;28;20029;-70
2022/07/01 02:15:10;;;;;;;10.15;8.55;;;18.00;99.90;;;;;;2075383;28;20048;-70
2022/07/01 02:16:11;;;;;;;9.80;8.90;;;17.90;99.90;;;;;;2075468;28;20025;-70
2022/07/01 02:17:12;;;;;;;10.40;9.50;;;18.00;99.90;;;;;;2075999;28;20033;-70
2022/07/01 02:18:12;;;;;;;10.70;9.80;;;18.00;99.90;;;;;;2076642;28;20030;-70
2022/07/01 02:19:13;;;;;;;9.73;8.60;;;18.00;99.90;;;;;;2077152;28;20026;-70
2022/07/01 02:20:14;;;;;;;10.45;9.55;;;18.00;99.90;;;;;;2078268;28;20083;-70
2022/07/01 02:21:15;;;;;;;11.20;10.18;;;18.00;99.90;;;;;;2076274;28;20037;-70
2022/07/01 02:22:15;;;;;;;10.02;9.05;;;18.00;99.90;;;;;;2076917;28;20049;-70
2022/07/01 02:23:16;;;;;;;10.60;9.60;;;18.00;99.90;;;;;;2078511;28;20436;-70
2022/07/01 02:24:18;;;;;;;8.88;7.70;;;18.00;99.90;;;;;;2077971;28;20477;-70
2022/07/01 02:25:19;;;;;;;8.75;8.05;;;18.00;99.90;;;;;;2076027;28;20535;-70
2022/07/01 02:26:20;;;;;;;10.50;9.45;;;18.00;99.90;;;;;;2077827;28;20033;-70
2022/07/01 02:27:21;;;;;;;10.35;9.45;;;18.00;99.90;;;;;;2076821;28;20529;-70
2022/07/01 02:28:21;;;;;;;11.50;10.40;;;18.00;99.90;;;;;;2077290;28;20037;-70
2022/07/01 02:29:22;;;;;;;11.43;10.32;;;18.00;99.90;;;;;;2074791;28;20563;-70
2022/07/01 02:30:22;;;;;;;10.82;9.85;;;18.10;99.90;;;;;;2077162;28;20476;-70
2022/07/01 02:31:23;;;;;;;13.50;12.20;;;18.10;99.90;;;;;;2077932;28;20060;-70
2022/07/01 02:32:24;;;;;;;15.00;13.57;;;18.10;99.90;;;;;;2075984;28;20064;-70
2022/07/01 02:33:24;;;;;;;13.32;12.23;;;18.00;99.90;;;;;;2074506;28;20030;-70
2022/07/01 02:34:25;;;;;;;12.85;11.50;;;18.00;99.90;;;;;;2076815;28;20802;-70
2022/07/01 02:35:25;;;;;;;13.05;11.95;;;18.10;99.90;;;;;;2077661;28;20385;-70
2022/07/01 02:36:26;;;;;;;11.90;10.90;;;18.10;99.90;;;;;;2078040;28;20021;-70
2022/07/01 02:37:27;;;;;;;13.63;12.35;;;18.10;99.90;;;;;;2078047;28;20389;-70
2022/07/01 02:38:28;;;;;;;12.80;11.70;;;18.00;99.90;;;;;;2074336;28;20022;-70
2022/07/01 02:39:28;;;;;;;12.15;10.93;;;18.10;99.90;;;;;;2074382;28;20494;-70
2022/07/01 02:40:30;;;;;;;10.68;9.73;;;18.10;99.90;;;;;;2078797;28;20080;-70
2022/07/01 02:41:30;;;;;;;11.35;10.25;;;18.10;99.90;;;;;;2078238;28;20026;-70
2022/07/01 02:42:35;;;;;;;11.35;10.23;;;18.10;99.90;;;;;;2078442;28;20075;-70
2022/07/01 02:43:36;;;;;;;13.75;12.32;;;18.10;99.90;;;;;;2075838;28;20029;-70
2022/07/01 02:44:37;;;;;;;12.93;11.82;;;18.00;99.90;;;;;;2075940;28;20021;-70
2022/07/01 02:45:38;;;;;;;12.45;11.35;;;18.00;99.90;;;;;;2074205;28;20489;-70
2022/07/01 02:46:38;;;;;;;11.95;10.73;;;18.00;99.90;;;;;;2076283;28;20053;-70
2022/07/01 02:47:40;;;;;;;10.82;9.80;;;18.00;99.90;;;;;;2074930;28;20035;-70
2022/07/01 02:48:41;;;;;;;12.40;11.32;;;18.00;99.90;;;;;;2068197;28;20061;-70
2022/07/01 02:49:41;;;;;;;12.68;11.45;;;18.00;99.90;;;;;;2067635;28;20160;-70
2022/07/01 02:50:42;;;;;;;15.18;11.68;;;18.00;99.90;;;;;;2078450;28;20373;-71
2022/07/01 02:51:42;;;;;;;12.30;10.82;;;18.00;99.90;;;;;;2076435;28;20030;-70
2022/07/01 02:52:43;;;;;;;12.70;11.60;;;17.90;99.90;;;;;;2075095;28;20036;-70
2022/07/01 02:53:44;;;;;;;11.60;10.32;;;18.00;99.90;;;;;;2073493;28;20041;-70
2022/07/01 02:54:44;;;;;;;11.20;10.10;;;17.90;99.90;;;;;;2078042;28;20393;-70
2022/07/01 02:55:45;;;;;;;11.82;10.52;;;17.90;99.90;;;;;;2074896;28;20033;-70
2022/07/01 02:56:46;;;;;;;12.40;10.70;;;17.90;99.90;;;;;;2078981;28;20013;-70
2022/07/01 02:57:51;;;;;;;10.10;9.10;;;17.90;99.90;;;;;;2079134;28;20096;-70
2022/07/01 02:58:52;;;;;;;11.32;10.15;;;17.90;99.90;;;;;;2079194;28;20026;-70
2022/07/01 02:59:53;;;;;;;11.75;10.55;;;17.90;99.90;;;;;;2077938;28;20112;-70
2022/07/01 03:00:53;;;;;;;11.80;10.68;;;17.90;99.90;;;;;;2078121;28;20048;-70
2022/07/01 03:01:54;;;;;;;9.88;9.07;;;17.90;99.90;;;;;;2077167;28;20021;-70
2022/07/01 03:02:55;;;;;;;11.35;9.85;;;17.80;99.90;;;;;;2078489;28;20029;-70
2022/07/01 03:03:56;;;;;;;11.80;9.43;;;17.80;99.90;;;;;;2075712;28;20040;-70
2022/07/01 03:04:56;;;;;;;11.85;10.65;;;17.80;99.90;;;;;;2077163;28;20037;-70
2022/07/01 03:05:57;;;;;;;10.50;9.63;;;17.80;99.90;;;;;;2077603;28;20370;-70
2022/07/01 03:06:58;;;;;;;12.50;11.25;;;17.80;99.90;;;;;;2077610;28;20167;-70
2022/07/01 03:07:58;;;;;;;12.43;11.13;;;17.80;99.90;;;;;;2077228;28;20026;-70
2022/07/01 03:08:59;;;;;;;12.88;10.45;;;17.80;99.90;;;;;;2076310;28;20021;-70
2022/07/01 03:09:59;;;;;;;12.73;10.23;;;17.80;99.90;;;;;;2075581;28;20387;-70
2022/07/01 03:11:00;;;;;;;10.77;9.88;;;17.70;99.90;;;;;;2078555;28;20440;-70
2022/07/01 03:12:24;;;;;;;11.93;10.70;;;17.70;99.90;;;;;;2078122;28;20033;-70
2022/07/01 03:13:22;;;;;;;10.32;9.32;;;17.70;99.90;;;;;;2077489;28;20037;-70
2022/07/01 03:14:22;;;;;;;13.32;11.68;;;17.70;99.90;;;;;;2074260;28;20433;-70
2022/07/01 03:15:23;;;;;;;11.85;10.63;;;17.70;99.90;;;;;;2078054;28;20539;-70
2022/07/01 03:16:23;;;;;;;10.57;9.57;;;17.70;99.90;;;;;;2079084;28;20037;-70
2022/07/01 03:17:25;;;;;;;12.68;11.38;;;17.70;99.90;;;;;;2076112;28;20022;-70
2022/07/01 03:18:26;;;;;;;11.63;10.50;;;17.70;99.90;;;;;;2074840;28;20018;-70
2022/07/01 03:19:27;;;;;;;12.23;10.82;;;17.70;99.90;;;;;;2076921;28;20050;-70
2022/07/01 03:20:27;;;;;;;12.65;11.35;;;17.70;99.90;;;;;;2076012;28;20024;-70
2022/07/01 03:21:28;;;;;;;11.80;10.70;;;17.70;99.90;;;;;;2076030;28;20466;-70
2022/07/01 03:22:30;;;;;;;13.18;11.88;;;17.70;99.90;;;;;;2075165;28;20064;-70
2022/07/01 03:23:31;;;;;;;12.05;10.70;;;17.70;99.90;;;;;;2076510;28;20032;-70
2022/07/01 03:24:31;;;;;;;13.43;12.00;;;17.60;99.90;;;;;;2075039;28;20026;-70
2022/07/01 03:25:32;;;;;;;13.10;11.80;;;17.60;99.90;;;;;;2077750;28;20022;-70
2022/07/01 03:26:33;;;;;;;13.20;10.18;;;17.60;99.90;;;;;;2077993;28;20733;-70
2022/07/01 03:27:34;;;;;;;15.00;11.32;;;17.60;99.90;;;;;;2078257;28;20104;-70
2022/07/01 03:28:35;;;;;;;13.52;12.00;;;17.60;99.90;;;;;;2077669;28;20104;-70
2022/07/01 03:29:36;;;;;;;13.18;11.23;;;17.60;99.90;;;;;;2078604;28;20089;-70
2022/07/01 03:30:36;;;;;;;12.07;10.80;;;17.60;99.90;;;;;;2074660;28;20033;-70
2022/07/01 03:31:37;;;;;;;14.27;10.40;;;17.60;99.90;;;;;;2078316;28;20029;-70
2022/07/01 03:32:37;;;;;;;13.50;10.43;;;17.60;99.90;;;;;;2073887;28;20047;-70
2022/07/01 03:33:38;;;;;;;13.40;11.38;;;17.60;99.90;;;;;;2075723;28;20037;-70
2022/07/01 03:34:40;;;;;;;12.95;11.23;;;17.50;99.90;;;;;;2074902;28;20132;-70
2022/07/01 03:35:45;;;;;;;14.57;11.10;;;17.50;99.90;;;;;;2077403;28;20119;-70
2022/07/01 03:36:46;;;;;;;16.55;10.57;;;17.50;99.90;;;;;;2077513;28;20034;-70
2022/07/01 03:37:47;;;;;;;11.02;9.88;;;17.50;99.90;;;;;;2076266;28;20552;-70
2022/07/01 03:38:47;;;;;;;12.32;10.35;;;17.50;99.90;;;;;;2076089;28;20017;-70
2022/07/01 03:39:49;;;;;;;12.23;9.32;;;17.50;99.90;;;;;;2076296;28;20029;-70
2022/07/01 03:40:49;;;;;;;12.95;10.93;;;17.50;99.90;;;;;;2074674;28;20155;-70
2022/07/01 03:41:50;;;;;;;12.55;10.20;;;17.50;99.90;;;;;;2076762;28;20034;-70
2022/07/01 03:42:50;;;;;;;13.35;11.02;;;17.50;99.90;;;;;;2076914;28;20029;-70
2022/07/01 03:43:51;;;;;;;13.85;10.55;;;17.50;99.90;;;;;;2076079;28;20033;-70
2022/07/01 03:44:51;;;;;;;12.75;10.05;;;17.50;99.90;;;;;;2074804;28;20111;-70
2022/07/01 03:45:52;;;;;;;12.60;11.02;;;17.50;99.90;;;;;;2074962;28;20029;-70
2022/07/01 03:46:54;;;;;;;9.75;8.75;;;17.50;99.90;;;;;;2077749;28;20055;-70
2022/07/01 03:47:54;;;;;;;11.57;9.77;;;17.50;99.90;;;;;;2078110;28;20049;-70
2022/07/01 03:48:55;;;;;;;11.80;10.55;;;17.50;99.90;;;;;;2073235;28;20030;-70
2022/07/01 03:49:55;;;;;;;12.32;10.57;;;17.50;99.90;;;;;;2075972;28;20497;-70
2022/07/01 03:50:56;;;;;;;13.52;10.68;;;17.50;99.90;;;;;;2075764;28;20489;-70
2022/07/01 03:51:57;;;;;;;13.82;11.70;;;17.50;99.90;;;;;;2077566;28;20036;-70
2022/07/01 03:54:29;;;;;;;12.00;10.65;;;17.40;99.90;;;;;;2075641;28;20029;-70
2022/07/01 03:55:30;;;;;;;14.55;10.40;;;17.40;99.90;;;;;;2076567;28;20033;-70
2022/07/01 03:56:31;;;;;;;10.30;9.25;;;17.40;99.90;;;;;;2078822;28;20393;-70
2022/07/01 03:57:31;;;;;;;15.20;11.73;;;17.40;99.90;;;;;;2077324;28;20049;-70
2022/07/01 03:58:32;;;;;;;10.90;9.80;;;17.40;99.90;;;;;;2075987;28;20670;-70
2022/07/01 03:59:37;;;;;;;13.07;10.88;;;17.40;99.90;;;;;;2077908;28;20040;-70
2022/07/01 04:00:39;;;;;;;14.15;10.95;;;17.40;99.90;;;;;;2077956;28;20084;-70
2022/07/01 04:01:39;;;;;;;11.57;10.00;;;17.40;99.90;;;;;;2076976;28;20570;-70
2022/07/01 04:02:40;;;;;;;12.98;9.32;;;17.40;99.90;;;;;;2076722;28;20041;-70
2022/07/01 04:03:40;;;;;;;12.27;9.05;;;17.40;99.90;;;;;;2077562;28;20028;-70
2022/07/01 04:04:41;;;;;;;11.82;9.80;;;17.40;99.90;;;;;;2075251;28;20075;-70
2022/07/01 04:05:41;;;;;;;13.10;10.40;;;17.40;99.90;;;;;;2074554;28;20028;-70
2022/07/01 04:06:44;;;;;;;11.27;9.13;;;17.40;99.90;;;;;;2076332;28;20030;-70
2022/07/01 04:07:44;;;;;;;10.65;8.40;;;17.40;99.90;;;;;;2076198;28;20099;-70
2022/07/01 04:08:47;;;;;;;11.80;9.93;;;17.40;99.90;;;;;;2075611;28;20029;-70
2022/07/01 04:09:48;;;;;;;12.18;9.70;;;17.40;99.90;;;;;;2074517;28;20022;-70
2022/07/01 04:10:49;;;;;;;11.82;10.55;;;17.40;99.90;;;;;;2078163;28;20017;-70
2022/07/01 04:11:51;;;;;;;11.38;10.20;;;17.50;99.90;;;;;;2077715;28;20040;-70
2022/07/01 04:12:51;;;;;;;10.52;9.43;;;17.40;99.90;;;;;;2074885;28;20037;-70
2022/07/01 04:13:52;;;;;;;11.60;10.40;;;17.40;99.90;;;;;;2075595;28;20029;-70
2022/07/01 04:14:53;;;;;;;12.57;9.63;;;17.40;99.90;;;;;;2074005;28;20051;-70
2022/07/01 04:15:54;;;;;;;11.32;9.40;;;17.50;99.90;;;;;;2076015;28;20018;-70
2022/07/01 04:16:54;;;;;;;12.07;9.98;;;17.50;99.90;;;;;;2074813;28;20037;-70
2022/07/01 04:17:55;;;;;;;11.02;9.85;;;17.40;99.90;;;;;;2076044;28;20040;-70
2022/07/01 04:18:56;;;;;;;12.88;9.50;;;17.50;99.90;;;;;;2077121;28;20029;-70
2022/07/01 04:19:57;;;;;;;9.27;8.23;;;17.50;99.90;;;;;;2076778;28;20025;-70
2022/07/01 04:22:32;;;;;;;13.00;9.23;;;17.50;99.90;;;;;;2075773;28;20026;-70
2022/07/01 04:23:33;;;;;;;10.68;8.45;;;17.40;99.90;;;;;;2076155;28;20029;-70
2022/07/01 04:24:34;;;;;;;11.45;9.10;;;17.40;99.90;;;;;;2073056;28;20030;-70
2022/07/01 04:25:34;;;;;;;10.20;8.90;;;17.50;99.90;;;;;;2076752;28;20480;-72
2022/07/01 04:26:35;;;;;;;10.13;7.57;;;17.50;99.90;;;;;;2076344;28;20033;-70
2022/07/01 04:27:35;;;;;;;9.80;8.38;;;17.50;99.90;;;;;;2076748;28;20038;-70
2022/07/01 04:28:36;;;;;;;8.88;7.13;;;17.50;99.90;;;;;;2075918;28;20060;-71
2022/07/01 04:29:37;;;;;;;12.80;8.80;;;17.50;99.90;;;;;;2075411;28;20025;-70
2022/07/01 04:30:37;;;;;;;10.48;8.32;;;17.50;99.90;;;;;;2074627;28;20549;-70
2022/07/01 04:31:38;;;;;;;11.52;9.38;;;17.50;99.90;;;;;;2076961;28;20036;-70
2022/07/01 04:32:39;;;;;;;9.52;7.60;;;17.50;99.90;;;;;;2077745;28;20042;-70
2022/07/01 04:33:39;;;;;;;11.13;8.80;;;17.50;99.90;;;;;;2076917;28;20032;-70
2022/07/01 04:34:40;;;;;;;10.45;8.57;;;17.50;99.90;;;;;;2075138;28;20058;-70
2022/07/01 04:35:41;;;;;;;12.45;9.32;;;17.50;99.90;;;;;;2075858;28;20025;-70
2022/07/01 04:36:42;;;;;;;12.63;9.85;;;17.50;99.90;;;;;;2076248;28;20026;-70
2022/07/01 04:37:42;;;;;;;9.35;8.23;;;17.50;99.90;;;;;;2074187;28;20033;-70
2022/07/01 04:38:43;;;;;;;10.93;9.48;;;17.50;99.90;;;;;;2074923;28;20080;-70
2022/07/01 04:39:44;;;;;;;11.60;8.93;;;17.50;99.90;;;;;;2077413;28;20053;-70
2022/07/01 04:41:58;;;;;;;12.00;9.57;;;17.50;99.90;;;;;;2078767;28;20105;-69
2022/07/01 04:42:06;;;;;;;9.52;8.63;;;17.60;99.90;;;;;;2075709;28;20029;-70
2022/07/01 04:43:06;;;;;;;12.07;9.77;;;17.50;99.90;;;;;;2073865;28;20026;-69
2022/07/01 04:44:07;;;;;;;11.30;9.73;;;17.50;99.90;;;;;;2073526;28;20021;-70
2022/07/01 04:45:10;;;;;;;10.27;9.27;;;17.50;99.90;;;;;;2075102;28;20103;-69
2022/07/01 04:46:10;;;;;;;9.98;8.85;;;17.60;99.90;;;;;;2075260;28;20060;-69
2022/07/01 04:47:11;;;;;;;12.27;9.52;;;17.60;99.90;;;;;;2074670;28;20469;-69
2022/07/01 04:48:11;;;;;;;12.00;9.50;;;17.60;99.90;;;;;;2079125;28;20509;-69
2022/07/01 04:49:12;;;;;;;9.52;8.48;;;17.60;99.90;;;;;;2075137;28;20389;-70
2022/07/01 04:50:13;;;;;;;9.52;8.52;;;17.60;99.90;;;;;;2077772;28;20089;-70
2022/07/01 04:51:13;;;;;;;11.02;8.82;;;17.60;99.90;;;;;;2085218;28;20022;-69
2022/07/01 04:52:14;;;;;;;11.05;8.60;;;17.60;99.90;;;;;;2083205;28;20021;-69
2022/07/01 04:53:15;;;;;;;9.05;7.68;;;17.60;99.90;;;;;;2076384;28;20032;-69
2022/07/01 04:54:16;;;;;;;10.45;8.75;;;17.60;99.90;;;;;;2076767;28;20033;-69
2022/07/01 04:55:17;;;;;;;10.73;8.40;;;17.70;99.90;;;;;;2078396;28;20048;-69
2022/07/01 04:56:18;;;;;;;11.93;9.55;;;17.70;99.90;;;;;;2076867;28;20097;-70
2022/07/01 04:57:19;;;;;;;10.82;9.68;;;17.70;99.90;;;;;;2076614;28;20889;-70
2022/07/01 04:58:19;;;;;;;13.20;9.43;;;17.70;99.90;;;;;;2075010;28;20029;-70
2022/07/01 04:59:20;;;;;;;10.27;8.55;;;17.60;99.90;;;;;;2073373;28;20021;-70
2022/07/01 05:00:21;;;;;;;11.02;9.02;;;17.70;99.90;;;;;;2075295;28;20021;-70
2022/07/01 05:01:22;;;;;;;9.55;8.63;;;17.60;99.90;;;;;;2075254;28;20026;-70
2022/07/01 05:02:23;;;;;;;9.15;7.75;;;17.70;99.90;;;;;;2073490;28;20025;-70
2022/07/01 05:03:23;;;;;;;13.07;8.77;;;17.60;99.90;;;;;;2075726;28;20068;-70
2022/07/01 05:04:26;;;;;;;9.57;8.25;;;17.70;99.90;;;;;;2075218;28;20029;-70
2022/07/01 05:05:26;;;;;;;11.40;7.70;;;17.60;99.90;;;;;;2075906;28;20026;-69
2022/07/01 05:06:27;;;;;;;11.10;8.25;;;17.60;99.90;;;;;;2074468;28;20782;-70
2022/07/01 05:07:28;;;;;;;12.32;8.40;;;17.60;99.90;;;;;;2074188;28;20033;-69
2022/07/01 05:08:28;;;;;;;9.25;8.25;;;17.60;99.90;;;;;;2074683;28;20018;-70
2022/07/01 05:09:29;;;;;;;13.70;8.43;;;17.60;99.90;;;;;;2076835;28;20090;-70
2022/07/01 05:10:29;;;;;;;9.38;7.68;;;17.60;99.90;;;;;;2075343;28;20128;-70
2022/07/01 05:11:30;;;;;;;8.32;7.35;;;17.60;99.90;;;;;;2075167;28;20030;-69
2022/07/01 05:12:31;;;;;;;8.43;7.32;;;17.60;99.90;;;;;;2076848;28;20030;-69
2022/07/01 05:13:33;;;;;;;9.82;7.45;;;17.60;99.90;;;;;;2076475;28;20077;-69
2022/07/01 05:14:34;;;;;;;8.82;7.90;;;17.60;99.90;;;;;;2073481;28;20021;-69
2022/07/01 05:15:35;;;;;;;11.18;7.35;;;17.60;99.90;;;;;;2074941;28;20022;-69
2022/07/01 05:16:36;;;;;;;9.20;6.68;;;17.60;99.90;;;;;;2074793;28;20097;-70